Tomah, WI

5:43 AM CDT on August 29, 2016 (GMT -0500)
Water Mill | | Change Station
Active Advisory: Special Statement

Elev 950 ft 44.05 °N, 90.46 °W | Updated 1 minute ago

Mist
Mist
63.2 °F
Feels Like 63.2 °F
N
0.0
Wind Variable Wind from SE
Gusts 0.0 mph

Today
High -- | Low -- °F
--% Chance of Precip.
Yesterday
High -- | Low -- °F
Precip. -- in
Pressure 30.22 in
Visibility 0.8 miles
Clouds
Dew Point 63 °F
Humidity 100%
Rainfall 0.00 in
Snow Depth Not available.
6:22 AM 7:42 PM
Waning Crescent, 9% visible
SPECI KVOK 291028Z AUTO 09003KT 3/4SM BR VV001 17/17 A3022 RMK AO2 RVRNO
Pressure 30.22 in
Visibility 0.8 miles
Clouds
Dew Point 63 °F
Humidity 100%
Rainfall 0.00 in
Snow Depth Not available.
6:22 AM 7:42 PM
Waning Crescent, 9% visible
SPECI KVOK 291028Z AUTO 09003KT 3/4SM BR VV001 17/17 A3022 RMK AO2 RVRNO

10-Day Weather Forecast

Almanac

Astronomy

Aug. 29, 2016 Rise Set
Actual Time
Civil Twilight
Nautical Twilight
Astronomical Twilight
Moon
Length of Visible Light
Length of Day
Tomorrow will be .
, % of the Moon is Illuminated

Today's Extremes

State Highs State Lows

Community

WunderPhotos

Upload Photos

1,935,802 photos uploaded!

WunderBlog® & News

Nearby

Air Quality

  Air Quality AQ Index Pollutant
Not available.

Snow Depth

Station Depth Elevation

Earthquake Activity

City Distance Mag. Time & Date
Minimum magnitude displayed is 2.5.

Coastal Water Temperatures

Place Temperature

Stations

Nearby Weather Stations

Station Location Temp. Windchill Dew Point Humidity Wind Precip. Elev Updated Type
                   

Watches & Warnings

Special Statement
Issued: 5:19 AM CDT Aug. 29, 2016 – National Weather Service

... Patchy dense fog this morning...

Be prepared for patchy dense fog early this morning. Visibility
could dip below 1/4 mile in spots. If traveling, slow down and
drive accordingly to the conditions.



519 am CDT Mon Aug 29 2016

... Patchy dense fog this morning...

Be prepared for patchy dense fog early this morning. Visibility
could dip below 1/4 mile in spots. If traveling, slow down and
drive accordingly to the conditions.